Hauptseite
METAR-TAF:

METAR-TAF

Flughäfen :

Flughafen Rodez-Aveyron

Rodez, Frankreich

Breite: 44-24N, Länge: 002-29E, Höhe: 581 m

Beobachtung

Neuester Wetterbericht von vor 33 Minuten, um 11:00 UTC
Wind 3 kt aus unterschiedlichen Richtungen
Temperatur 26°C
Luftfeuchtigkeit 51%
Luftdruck 1023 hPa
Sichtweite 10 km oder mehr
keine Wolken unter 1500 m und keine Kumulonimbus oder Gewitterwolken

METAR: LFCR 191100Z AUTO VRB03KT CAVOK 26/15 Q1023 NOSIG

Zeit: 13:33 (11:33 UTC)

Prognose

Neuester Wetterbericht von vor 6 Stunden und 33 Minuten, um 05:00 UTC
Gültige Prognose vom 19 um 06 UTC bis 20 um 06 UTC
Wind 5 kt aus Nordwest
Sichtweite 10 km oder mehr
keine Wolken unter 1500 m und keine Kumulonimbus oder Gewitterwolken
Zeitweise
vom 19 um 06 UTC bis 19 um 07 UTC
Sichtweite: 4000 m
feuchter Dunst

TAF: LFCR 190500Z 1906/2006 32005KT CAVOK TEMPO 1906/1907 4000 BR

Wetterbeobachtungen und Prognosen von mehr als 4000 Flughäfen (METAR und TAF Bericht).

Die verfügbaren Stationen werden durch gelbe und rote Markierungen auf der Karte dargestellt.

Führen Sie die Maus auf sie, um den Namen der Station zu sehen.

Darauf klicken, um die Beobachtung von Wetterbeobachtungen und Prognosen zu sehen.

Um die Karte zu ändern : klicken Sie auf den grünen Tasten mit einem schwarzen Kreuz Zum Vergrößern, auf den grünen Button mit einem Gedankenstrich zu verkleinern, oder auf die grünen Pfeile für benachbarte Karten.


METAR-TAF: